sensor_id;sensor_type;location;lat;lon;timestamp;P1;durP1;ratioP1;P2;durP2;ratioP2
12556;SDS011;6344;49.932;8.308;2022-10-18T00:00:56;13.70;;;12.67;;
12556;SDS011;6344;49.932;8.308;2022-10-18T00:03:24;14.47;;;12.90;;
12556;SDS011;6344;49.932;8.308;2022-10-18T00:05:51;14.40;;;12.40;;
12556;SDS011;6344;49.932;8.308;2022-10-18T00:08:18;14.43;;;13.13;;
12556;SDS011;6344;49.932;8.308;2022-10-18T00:10:46;13.43;;;12.27;;
12556;SDS011;6344;49.932;8.308;2022-10-18T00:13:13;14.93;;;13.63;;
12556;SDS011;6344;49.932;8.308;2022-10-18T00:15:46;15.67;;;12.80;;
12556;SDS011;6344;49.932;8.308;2022-10-18T00:18:14;14.70;;;13.20;;
12556;SDS011;6344;49.932;8.308;2022-10-18T00:20:42;14.20;;;12.90;;
12556;SDS011;6344;49.932;8.308;2022-10-18T00:23:08;14.83;;;13.33;;
12556;SDS011;6344;49.932;8.308;2022-10-18T00:25:35;14.93;;;13.50;;
12556;SDS011;6344;49.932;8.308;2022-10-18T00:28:02;14.40;;;13.10;;
12556;SDS011;6344;49.932;8.308;2022-10-18T00:30:29;14.60;;;12.60;;
12556;SDS011;6344;49.932;8.308;2022-10-18T00:32:55;14.53;;;12.37;;
12556;SDS011;6344;49.932;8.308;2022-10-18T00:35:22;14.07;;;12.37;;
12556;SDS011;6344;49.932;8.308;2022-10-18T00:37:50;14.47;;;13.17;;
12556;SDS011;6344;49.932;8.308;2022-10-18T00:40:17;18.00;;;14.27;;
12556;SDS011;6344;49.932;8.308;2022-10-18T00:42:44;15.03;;;13.53;;
12556;SDS011;6344;49.932;8.308;2022-10-18T00:45:18;14.47;;;13.10;;
12556;SDS011;6344;49.932;8.308;2022-10-18T00:47:47;15.57;;;13.97;;
12556;SDS011;6344;49.932;8.308;2022-10-18T00:50:18;17.33;;;14.10;;
12556;SDS011;6344;49.932;8.308;2022-10-18T00:52:47;16.23;;;14.83;;
12556;SDS011;6344;49.932;8.308;2022-10-18T00:55:18;15.67;;;13.73;;
12556;SDS011;6344;49.932;8.308;2022-10-18T00:57:45;15.93;;;14.33;;
12556;SDS011;6344;49.932;8.308;2022-10-18T01:00:12;14.63;;;13.17;;
12556;SDS011;6344;49.932;8.308;2022-10-18T01:02:40;15.20;;;13.70;;
12556;SDS011;6344;49.932;8.308;2022-10-18T01:05:11;15.23;;;13.67;;
12556;SDS011;6344;49.932;8.308;2022-10-18T01:07:47;16.77;;;14.53;;
12556;SDS011;6344;49.932;8.308;2022-10-18T01:10:38;16.80;;;14.33;;
12556;SDS011;6344;49.932;8.308;2022-10-18T01:13:18;15.27;;;13.80;;
12556;SDS011;6344;49.932;8.308;2022-10-18T01:15:55;15.53;;;14.10;;
12556;SDS011;6344;49.932;8.308;2022-10-18T01:18:26;14.83;;;13.33;;
12556;SDS011;6344;49.932;8.308;2022-10-18T01:21:03;15.57;;;14.10;;
12556;SDS011;6344;49.932;8.308;2022-10-18T01:24:06;17.30;;;15.47;;
12556;SDS011;6344;49.932;8.308;2022-10-18T01:26:58;15.77;;;14.23;;
12556;SDS011;6344;49.932;8.308;2022-10-18T01:29:40;15.17;;;13.77;;
12556;SDS011;6344;49.932;8.308;2022-10-18T01:32:17;16.27;;;14.63;;
12556;SDS011;6344;49.932;8.308;2022-10-18T01:34:47;15.40;;;13.83;;
12556;SDS011;6344;49.932;8.308;2022-10-18T01:37:18;16.63;;;14.90;;
12556;SDS011;6344;49.932;8.308;2022-10-18T01:39:46;21.97;;;15.50;;
12556;SDS011;6344;49.932;8.308;2022-10-18T01:42:16;16.37;;;14.87;;
12556;SDS011;6344;49.932;8.308;2022-10-18T01:44:45;14.50;;;12.97;;
12556;SDS011;6344;49.932;8.308;2022-10-18T01:47:16;18.00;;;14.47;;
12556;SDS011;6344;49.932;8.308;2022-10-18T01:49:44;16.00;;;13.40;;
12556;SDS011;6344;49.932;8.308;2022-10-18T01:52:11;15.50;;;14.10;;
12556;SDS011;6344;49.932;8.308;2022-10-18T01:54:39;16.57;;;14.87;;
12556;SDS011;6344;49.932;8.308;2022-10-18T01:57:08;15.87;;;13.77;;
12556;SDS011;6344;49.932;8.308;2022-10-18T01:59:45;16.57;;;14.80;;
12556;SDS011;6344;49.932;8.308;2022-10-18T02:02:23;16.80;;;15.00;;
12556;SDS011;6344;49.932;8.308;2022-10-18T02:05:01;17.30;;;13.90;;
12556;SDS011;6344;49.932;8.308;2022-10-18T02:07:31;16.07;;;14.40;;
12556;SDS011;6344;49.932;8.308;2022-10-18T02:10:06;16.53;;;14.77;;
12556;SDS011;6344;49.932;8.308;2022-10-18T02:12:36;18.93;;;14.13;;
12556;SDS011;6344;49.932;8.308;2022-10-18T02:15:07;19.37;;;14.93;;
12556;SDS011;6344;49.932;8.308;2022-10-18T02:17:39;20.60;;;15.50;;
12556;SDS011;6344;49.932;8.308;2022-10-18T02:20:07;15.80;;;14.33;;
12556;SDS011;6344;49.932;8.308;2022-10-18T02:22:35;17.00;;;15.30;;
12556;SDS011;6344;49.932;8.308;2022-10-18T02:25:05;16.27;;;14.63;;
12556;SDS011;6344;49.932;8.308;2022-10-18T02:27:35;17.37;;;15.83;;
12556;SDS011;6344;49.932;8.308;2022-10-18T02:30:03;21.23;;;15.77;;
12556;SDS011;6344;49.932;8.308;2022-10-18T02:32:31;17.30;;;15.80;;
12556;SDS011;6344;49.932;8.308;2022-10-18T02:35:05;21.17;;;14.97;;
12556;SDS011;6344;49.932;8.308;2022-10-18T02:37:39;17.63;;;15.93;;
12556;SDS011;6344;49.932;8.308;2022-10-18T02:40:07;17.63;;;15.93;;
12556;SDS011;6344;49.932;8.308;2022-10-18T02:42:38;17.57;;;15.83;;
12556;SDS011;6344;49.932;8.308;2022-10-18T02:45:09;17.90;;;16.20;;
12556;SDS011;6344;49.932;8.308;2022-10-18T02:47:37;20.03;;;17.20;;
12556;SDS011;6344;49.932;8.308;2022-10-18T02:50:05;18.93;;;16.90;;
12556;SDS011;6344;49.932;8.308;2022-10-18T02:52:32;18.90;;;17.00;;
12556;SDS011;6344;49.932;8.308;2022-10-18T02:54:59;17.20;;;15.50;;
12556;SDS011;6344;49.932;8.308;2022-10-18T02:57:26;18.93;;;16.20;;
12556;SDS011;6344;49.932;8.308;2022-10-18T02:59:54;21.27;;;19.17;;
12556;SDS011;6344;49.932;8.308;2022-10-18T03:02:20;16.97;;;15.47;;
12556;SDS011;6344;49.932;8.308;2022-10-18T03:04:47;16.60;;;15.20;;
12556;SDS011;6344;49.932;8.308;2022-10-18T03:07:15;17.03;;;15.53;;
12556;SDS011;6344;49.932;8.308;2022-10-18T03:09:42;20.27;;;14.40;;
12556;SDS011;6344;49.932;8.308;2022-10-18T03:12:09;6.23;;;5.43;;
12556;SDS011;6344;49.932;8.308;2022-10-18T03:14:36;9.00;;;4.60;;
12556;SDS011;6344;49.932;8.308;2022-10-18T03:17:02;5.87;;;4.00;;
12556;SDS011;6344;49.932;8.308;2022-10-18T03:19:29;3.53;;;3.23;;
12556;SDS011;6344;49.932;8.308;2022-10-18T03:21:56;2.90;;;2.60;;
12556;SDS011;6344;49.932;8.308;2022-10-18T03:24:24;2.73;;;2.53;;
12556;SDS011;6344;49.932;8.308;2022-10-18T03:26:50;3.20;;;2.27;;
12556;SDS011;6344;49.932;8.308;2022-10-18T03:29:17;3.27;;;2.87;;
12556;SDS011;6344;49.932;8.308;2022-10-18T03:31:44;2.50;;;2.30;;
12556;SDS011;6344;49.932;8.308;2022-10-18T03:34:10;2.90;;;2.10;;
12556;SDS011;6344;49.932;8.308;2022-10-18T03:36:37;3.93;;;2.00;;
12556;SDS011;6344;49.932;8.308;2022-10-18T03:39:05;3.33;;;2.17;;
12556;SDS011;6344;49.932;8.308;2022-10-18T03:41:33;4.00;;;2.90;;
12556;SDS011;6344;49.932;8.308;2022-10-18T03:44:03;3.33;;;3.03;;
12556;SDS011;6344;49.932;8.308;2022-10-18T03:46:30;5.33;;;3.20;;
12556;SDS011;6344;49.932;8.308;2022-10-18T03:48:56;4.33;;;3.27;;
12556;SDS011;6344;49.932;8.308;2022-10-18T03:51:23;5.10;;;3.97;;
12556;SDS011;6344;49.932;8.308;2022-10-18T03:53:50;4.37;;;3.30;;
12556;SDS011;6344;49.932;8.308;2022-10-18T03:56:16;5.63;;;3.00;;
12556;SDS011;6344;49.932;8.308;2022-10-18T03:58:44;8.80;;;2.60;;
12556;SDS011;6344;49.932;8.308;2022-10-18T04:01:11;4.47;;;2.20;;
12556;SDS011;6344;49.932;8.308;2022-10-18T04:03:38;3.50;;;2.37;;
12556;SDS011;6344;49.932;8.308;2022-10-18T04:06:05;7.77;;;3.43;;
12556;SDS011;6344;49.932;8.308;2022-10-18T04:08:33;7.10;;;2.50;;
12556;SDS011;6344;49.932;8.308;2022-10-18T04:11:03;4.33;;;2.47;;
12556;SDS011;6344;49.932;8.308;2022-10-18T04:13:32;5.70;;;2.60;;
12556;SDS011;6344;49.932;8.308;2022-10-18T04:16:00;4.70;;;2.37;;
12556;SDS011;6344;49.932;8.308;2022-10-18T04:18:27;7.40;;;2.30;;
12556;SDS011;6344;49.932;8.308;2022-10-18T04:20:53;5.07;;;2.40;;
12556;SDS011;6344;49.932;8.308;2022-10-18T04:23:20;3.47;;;1.87;;
12556;SDS011;6344;49.932;8.308;2022-10-18T04:25:47;3.73;;;2.53;;
12556;SDS011;6344;49.932;8.308;2022-10-18T04:28:14;2.10;;;1.90;;
12556;SDS011;6344;49.932;8.308;2022-10-18T04:30:40;4.80;;;2.47;;
12556;SDS011;6344;49.932;8.308;2022-10-18T04:33:08;3.63;;;2.43;;
12556;SDS011;6344;49.932;8.308;2022-10-18T04:35:35;9.30;;;2.50;;
12556;SDS011;6344;49.932;8.308;2022-10-18T04:38:02;5.60;;;2.37;;
12556;SDS011;6344;49.932;8.308;2022-10-18T04:40:28;6.50;;;3.17;;
12556;SDS011;6344;49.932;8.308;2022-10-18T04:42:55;5.30;;;2.40;;
12556;SDS011;6344;49.932;8.308;2022-10-18T04:45:22;4.67;;;2.37;;
12556;SDS011;6344;49.932;8.308;2022-10-18T04:47:48;3.90;;;2.47;;
12556;SDS011;6344;49.932;8.308;2022-10-18T04:50:17;3.63;;;2.57;;
12556;SDS011;6344;49.932;8.308;2022-10-18T04:52:43;3.07;;;2.47;;
12556;SDS011;6344;49.932;8.308;2022-10-18T04:55:10;4.50;;;2.47;;
12556;SDS011;6344;49.932;8.308;2022-10-18T04:57:37;3.23;;;2.33;;
12556;SDS011;6344;49.932;8.308;2022-10-18T05:00:04;4.70;;;3.00;;
12556;SDS011;6344;49.932;8.308;2022-10-18T05:02:31;3.83;;;2.60;;
12556;SDS011;6344;49.932;8.308;2022-10-18T05:04:58;2.60;;;2.23;;
12556;SDS011;6344;49.932;8.308;2022-10-18T05:07:26;5.03;;;2.77;;
12556;SDS011;6344;49.932;8.308;2022-10-18T05:09:53;4.10;;;3.07;;
12556;SDS011;6344;49.932;8.308;2022-10-18T05:12:19;7.33;;;2.60;;
12556;SDS011;6344;49.932;8.308;2022-10-18T05:14:47;5.67;;;3.40;;
12556;SDS011;6344;49.932;8.308;2022-10-18T05:17:13;3.97;;;3.40;;
12556;SDS011;6344;49.932;8.308;2022-10-18T05:19:40;3.90;;;3.60;;
12556;SDS011;6344;49.932;8.308;2022-10-18T05:22:07;4.67;;;3.43;;
12556;SDS011;6344;49.932;8.308;2022-10-18T05:24:35;6.40;;;3.10;;
12556;SDS011;6344;49.932;8.308;2022-10-18T05:27:02;8.37;;;3.93;;
12556;SDS011;6344;49.932;8.308;2022-10-18T05:29:28;5.00;;;3.87;;
12556;SDS011;6344;49.932;8.308;2022-10-18T05:31:55;7.67;;;3.97;;
12556;SDS011;6344;49.932;8.308;2022-10-18T05:34:22;6.90;;;3.80;;
12556;SDS011;6344;49.932;8.308;2022-10-18T05:36:51;7.13;;;3.50;;
12556;SDS011;6344;49.932;8.308;2022-10-18T05:39:17;4.20;;;3.33;;
12556;SDS011;6344;49.932;8.308;2022-10-18T05:41:45;4.13;;;2.63;;
12556;SDS011;6344;49.932;8.308;2022-10-18T05:44:12;4.10;;;3.70;;
12556;SDS011;6344;49.932;8.308;2022-10-18T05:46:39;4.43;;;2.70;;
12556;SDS011;6344;49.932;8.308;2022-10-18T05:49:06;16.17;;;14.70;;
12556;SDS011;6344;49.932;8.308;2022-10-18T05:51:32;9.90;;;7.07;;
12556;SDS011;6344;49.932;8.308;2022-10-18T05:53:59;2.90;;;2.60;;
12556;SDS011;6344;49.932;8.308;2022-10-18T05:56:26;3.10;;;2.20;;
12556;SDS011;6344;49.932;8.308;2022-10-18T05:58:54;3.07;;;2.80;;
12556;SDS011;6344;49.932;8.308;2022-10-18T06:01:20;3.90;;;3.33;;
12556;SDS011;6344;49.932;8.308;2022-10-18T06:03:47;4.90;;;3.43;;
12556;SDS011;6344;49.932;8.308;2022-10-18T06:06:15;6.20;;;3.53;;
12556;SDS011;6344;49.932;8.308;2022-10-18T06:08:42;3.13;;;2.73;;
12556;SDS011;6344;49.932;8.308;2022-10-18T06:11:10;3.87;;;3.23;;
12556;SDS011;6344;49.932;8.308;2022-10-18T06:13:38;4.97;;;3.93;;
12556;SDS011;6344;49.932;8.308;2022-10-18T06:16:07;5.27;;;3.30;;
12556;SDS011;6344;49.932;8.308;2022-10-18T06:18:35;7.53;;;3.77;;
12556;SDS011;6344;49.932;8.308;2022-10-18T06:21:02;5.43;;;3.57;;
12556;SDS011;6344;49.932;8.308;2022-10-18T06:23:29;3.97;;;3.60;;
12556;SDS011;6344;49.932;8.308;2022-10-18T06:25:59;3.60;;;3.30;;
12556;SDS011;6344;49.932;8.308;2022-10-18T06:28:26;6.70;;;2.70;;
12556;SDS011;6344;49.932;8.308;2022-10-18T06:30:53;4.37;;;3.47;;
12556;SDS011;6344;49.932;8.308;2022-10-18T06:33:22;8.00;;;3.40;;
12556;SDS011;6344;49.932;8.308;2022-10-18T06:35:55;4.83;;;3.50;;
12556;SDS011;6344;49.932;8.308;2022-10-18T06:38:22;6.93;;;3.93;;
12556;SDS011;6344;49.932;8.308;2022-10-18T06:40:49;3.33;;;2.80;;
12556;SDS011;6344;49.932;8.308;2022-10-18T06:43:16;4.67;;;4.03;;
12556;SDS011;6344;49.932;8.308;2022-10-18T06:45:42;5.90;;;4.03;;
12556;SDS011;6344;49.932;8.308;2022-10-18T06:48:09;6.27;;;3.63;;
12556;SDS011;6344;49.932;8.308;2022-10-18T06:50:37;5.27;;;4.77;;
12556;SDS011;6344;49.932;8.308;2022-10-18T06:53:04;8.17;;;4.90;;
12556;SDS011;6344;49.932;8.308;2022-10-18T06:55:33;10.50;;;9.60;;
12556;SDS011;6344;49.932;8.308;2022-10-18T06:58:00;9.73;;;5.77;;
12556;SDS011;6344;49.932;8.308;2022-10-18T07:00:27;6.87;;;5.70;;
12556;SDS011;6344;49.932;8.308;2022-10-18T07:02:54;6.70;;;5.70;;
12556;SDS011;6344;49.932;8.308;2022-10-18T07:05:21;8.10;;;4.77;;
12556;SDS011;6344;49.932;8.308;2022-10-18T07:07:49;5.00;;;4.50;;
12556;SDS011;6344;49.932;8.308;2022-10-18T07:10:16;6.17;;;4.70;;
12556;SDS011;6344;49.932;8.308;2022-10-18T07:12:43;4.63;;;4.00;;
12556;SDS011;6344;49.932;8.308;2022-10-18T07:15:10;4.90;;;4.00;;
12556;SDS011;6344;49.932;8.308;2022-10-18T07:17:36;5.67;;;4.50;;
12556;SDS011;6344;49.932;8.308;2022-10-18T07:20:03;4.47;;;4.07;;
12556;SDS011;6344;49.932;8.308;2022-10-18T07:22:30;5.53;;;4.00;;
12556;SDS011;6344;49.932;8.308;2022-10-18T07:24:59;7.63;;;4.80;;
12556;SDS011;6344;49.932;8.308;2022-10-18T07:27:26;4.77;;;4.10;;
12556;SDS011;6344;49.932;8.308;2022-10-18T07:29:52;6.57;;;5.10;;
12556;SDS011;6344;49.932;8.308;2022-10-18T07:32:19;8.83;;;4.43;;
12556;SDS011;6344;49.932;8.308;2022-10-18T07:34:46;7.70;;;6.90;;
12556;SDS011;6344;49.932;8.308;2022-10-18T07:37:12;6.70;;;4.53;;
12556;SDS011;6344;49.932;8.308;2022-10-18T07:39:39;4.67;;;3.93;;
12556;SDS011;6344;49.932;8.308;2022-10-18T07:42:07;5.40;;;3.97;;
12556;SDS011;6344;49.932;8.308;2022-10-18T07:44:34;11.00;;;4.10;;
12556;SDS011;6344;49.932;8.308;2022-10-18T07:47:01;4.53;;;4.13;;
12556;SDS011;6344;49.932;8.308;2022-10-18T07:49:27;4.63;;;4.27;;
12556;SDS011;6344;49.932;8.308;2022-10-18T07:51:54;5.30;;;4.80;;
12556;SDS011;6344;49.932;8.308;2022-10-18T07:54:21;4.93;;;4.53;;
12556;SDS011;6344;49.932;8.308;2022-10-18T07:56:47;5.43;;;4.13;;
12556;SDS011;6344;49.932;8.308;2022-10-18T07:59:15;6.07;;;4.10;;
12556;SDS011;6344;49.932;8.308;2022-10-18T08:01:42;4.40;;;4.10;;
12556;SDS011;6344;49.932;8.308;2022-10-18T08:04:09;7.03;;;4.03;;
12556;SDS011;6344;49.932;8.308;2022-10-18T08:06:36;6.43;;;4.97;;
12556;SDS011;6344;49.932;8.308;2022-10-18T08:09:02;4.97;;;4.50;;
12556;SDS011;6344;49.932;8.308;2022-10-18T08:11:30;7.60;;;4.10;;
12556;SDS011;6344;49.932;8.308;2022-10-18T08:13:56;4.60;;;4.20;;
12556;SDS011;6344;49.932;8.308;2022-10-18T08:16:25;5.33;;;4.90;;
12556;SDS011;6344;49.932;8.308;2022-10-18T08:18:53;5.47;;;4.97;;
12556;SDS011;6344;49.932;8.308;2022-10-18T08:21:22;5.77;;;4.60;;
12556;SDS011;6344;49.932;8.308;2022-10-18T08:23:49;5.77;;;5.27;;
12556;SDS011;6344;49.932;8.308;2022-10-18T08:26:17;5.50;;;5.00;;
12556;SDS011;6344;49.932;8.308;2022-10-18T08:28:45;7.90;;;4.93;;
12556;SDS011;6344;49.932;8.308;2022-10-18T08:31:13;4.53;;;4.23;;
12556;SDS011;6344;49.932;8.308;2022-10-18T08:33:43;7.00;;;4.77;;
12556;SDS011;6344;49.932;8.308;2022-10-18T08:36:11;4.50;;;4.17;;
12556;SDS011;6344;49.932;8.308;2022-10-18T08:38:39;4.20;;;3.80;;
12556;SDS011;6344;49.932;8.308;2022-10-18T08:41:15;4.63;;;4.30;;
12556;SDS011;6344;49.932;8.308;2022-10-18T08:44:04;5.20;;;4.80;;
12556;SDS011;6344;49.932;8.308;2022-10-18T08:46:34;4.90;;;4.50;;
12556;SDS011;6344;49.932;8.308;2022-10-18T08:49:05;4.37;;;3.90;;
12556;SDS011;6344;49.932;8.308;2022-10-18T08:51:37;4.40;;;4.00;;
12556;SDS011;6344;49.932;8.308;2022-10-18T08:54:09;5.37;;;4.97;;
12556;SDS011;6344;49.932;8.308;2022-10-18T08:56:38;6.20;;;5.10;;
12556;SDS011;6344;49.932;8.308;2022-10-18T08:59:08;5.53;;;5.03;;
12556;SDS011;6344;49.932;8.308;2022-10-18T09:01:38;7.37;;;4.83;;
12556;SDS011;6344;49.932;8.308;2022-10-18T09:04:24;5.07;;;4.67;;
12556;SDS011;6344;49.932;8.308;2022-10-18T09:07:05;4.63;;;4.33;;
12556;SDS011;6344;49.932;8.308;2022-10-18T09:09:49;4.13;;;3.83;;
12556;SDS011;6344;49.932;8.308;2022-10-18T09:12:26;4.50;;;4.20;;
12556;SDS011;6344;49.932;8.308;2022-10-18T09:15:05;5.00;;;3.33;;
12556;SDS011;6344;49.932;8.308;2022-10-18T09:17:50;2.80;;;2.60;;
12556;SDS011;6344;49.932;8.308;2022-10-18T09:20:30;4.00;;;3.70;;
12556;SDS011;6344;49.932;8.308;2022-10-18T09:23:04;4.47;;;4.13;;
12556;SDS011;6344;49.932;8.308;2022-10-18T09:25:42;5.33;;;4.50;;
12556;SDS011;6344;49.932;8.308;2022-10-18T09:28:14;4.53;;;4.13;;
12556;SDS011;6344;49.932;8.308;2022-10-18T09:30:44;7.43;;;4.50;;
12556;SDS011;6344;49.932;8.308;2022-10-18T09:33:25;5.07;;;3.60;;
12556;SDS011;6344;49.932;8.308;2022-10-18T09:36:04;3.97;;;3.67;;
12556;SDS011;6344;49.932;8.308;2022-10-18T09:38:36;3.00;;;2.80;;
12556;SDS011;6344;49.932;8.308;2022-10-18T09:41:09;3.10;;;2.90;;
12556;SDS011;6344;49.932;8.308;2022-10-18T09:43:47;4.10;;;3.10;;
12556;SDS011;6344;49.932;8.308;2022-10-18T09:46:19;3.40;;;3.20;;
12556;SDS011;6344;49.932;8.308;2022-10-18T09:48:49;2.83;;;2.40;;
12556;SDS011;6344;49.932;8.308;2022-10-18T09:51:21;3.03;;;2.83;;
12556;SDS011;6344;49.932;8.308;2022-10-18T09:53:55;3.47;;;3.13;;
12556;SDS011;6344;49.932;8.308;2022-10-18T09:56:28;4.00;;;3.70;;
12556;SDS011;6344;49.932;8.308;2022-10-18T09:58:58;3.40;;;2.97;;
12556;SDS011;6344;49.932;8.308;2022-10-18T10:01:25;3.70;;;3.23;;
12556;SDS011;6344;49.932;8.308;2022-10-18T10:03:54;4.97;;;2.87;;
12556;SDS011;6344;49.932;8.308;2022-10-18T10:06:23;2.50;;;2.40;;
12556;SDS011;6344;49.932;8.308;2022-10-18T10:08:53;2.30;;;2.10;;
12556;SDS011;6344;49.932;8.308;2022-10-18T10:11:28;2.10;;;2.00;;
12556;SDS011;6344;49.932;8.308;2022-10-18T10:14:12;1.63;;;1.53;;
12556;SDS011;6344;49.932;8.308;2022-10-18T10:16:45;2.27;;;2.07;;
12556;SDS011;6344;49.932;8.308;2022-10-18T10:19:19;1.90;;;1.80;;
12556;SDS011;6344;49.932;8.308;2022-10-18T10:21:55;1.67;;;1.57;;
12556;SDS011;6344;49.932;8.308;2022-10-18T10:24:26;1.40;;;1.30;;
12556;SDS011;6344;49.932;8.308;2022-10-18T10:27:00;1.57;;;1.20;;
12556;SDS011;6344;49.932;8.308;2022-10-18T10:29:36;1.70;;;1.20;;
12556;SDS011;6344;49.932;8.308;2022-10-18T10:32:16;1.20;;;1.10;;
12556;SDS011;6344;49.932;8.308;2022-10-18T10:34:44;1.20;;;1.00;;
12556;SDS011;6344;49.932;8.308;2022-10-18T10:37:23;2.40;;;1.27;;
12556;SDS011;6344;49.932;8.308;2022-10-18T10:40:12;1.40;;;1.30;;
12556;SDS011;6344;49.932;8.308;2022-10-18T10:42:54;2.13;;;1.47;;
12556;SDS011;6344;49.932;8.308;2022-10-18T10:45:27;1.40;;;1.13;;
12556;SDS011;6344;49.932;8.308;2022-10-18T10:48:01;1.40;;;1.30;;
12556;SDS011;6344;49.932;8.308;2022-10-18T10:50:30;2.03;;;1.30;;
12556;SDS011;6344;49.932;8.308;2022-10-18T10:52:58;2.30;;;1.10;;
12556;SDS011;6344;49.932;8.308;2022-10-18T10:55:25;1.50;;;1.40;;
12556;SDS011;6344;49.932;8.308;2022-10-18T10:57:56;1.17;;;1.07;;
12556;SDS011;6344;49.932;8.308;2022-10-18T11:00:36;1.40;;;1.20;;
12556;SDS011;6344;49.932;8.308;2022-10-18T11:03:05;2.20;;;1.20;;
12556;SDS011;6344;49.932;8.308;2022-10-18T11:05:43;1.30;;;1.20;;
12556;SDS011;6344;49.932;8.308;2022-10-18T11:08:14;1.73;;;1.00;;
12556;SDS011;6344;49.932;8.308;2022-10-18T11:10:53;1.50;;;1.20;;
12556;SDS011;6344;49.932;8.308;2022-10-18T11:13:29;1.43;;;1.30;;
12556;SDS011;6344;49.932;8.308;2022-10-18T11:16:06;1.10;;;0.97;;
12556;SDS011;6344;49.932;8.308;2022-10-18T11:18:38;1.30;;;1.10;;
12556;SDS011;6344;49.932;8.308;2022-10-18T11:21:09;1.40;;;1.30;;
12556;SDS011;6344;49.932;8.308;2022-10-18T11:23:41;1.57;;;1.10;;
12556;SDS011;6344;49.932;8.308;2022-10-18T11:26:16;2.93;;;1.53;;
12556;SDS011;6344;49.932;8.308;2022-10-18T11:29:00;7.00;;;2.30;;
12556;SDS011;6344;49.932;8.308;2022-10-18T11:31:46;2.17;;;1.10;;
12556;SDS011;6344;49.932;8.308;2022-10-18T11:34:26;1.10;;;1.00;;
12556;SDS011;6344;49.932;8.308;2022-10-18T11:37:21;1.40;;;1.10;;
12556;SDS011;6344;49.932;8.308;2022-10-18T11:40:00;1.30;;;1.20;;
12556;SDS011;6344;49.932;8.308;2022-10-18T11:42:37;1.33;;;1.20;;
12556;SDS011;6344;49.932;8.308;2022-10-18T11:45:17;1.60;;;1.10;;
12556;SDS011;6344;49.932;8.308;2022-10-18T11:47:53;1.47;;;1.07;;
12556;SDS011;6344;49.932;8.308;2022-10-18T11:50:26;1.10;;;1.00;;
12556;SDS011;6344;49.932;8.308;2022-10-18T11:53:03;1.20;;;1.10;;
12556;SDS011;6344;49.932;8.308;2022-10-18T11:55:40;1.10;;;1.00;;
12556;SDS011;6344;49.932;8.308;2022-10-18T11:58:21;1.20;;;1.10;;
12556;SDS011;6344;49.932;8.308;2022-10-18T12:01:02;1.10;;;1.00;;
12556;SDS011;6344;49.932;8.308;2022-10-18T12:03:40;1.10;;;1.00;;
12556;SDS011;6344;49.932;8.308;2022-10-18T12:06:16;1.10;;;0.90;;
12556;SDS011;6344;49.932;8.308;2022-10-18T12:08:46;1.20;;;1.10;;
12556;SDS011;6344;49.932;8.308;2022-10-18T12:11:18;1.10;;;1.00;;
12556;SDS011;6344;49.932;8.308;2022-10-18T12:13:47;1.33;;;1.23;;
12556;SDS011;6344;49.932;8.308;2022-10-18T12:16:17;1.10;;;0.90;;
12556;SDS011;6344;49.932;8.308;2022-10-18T12:18:48;1.10;;;1.00;;
12556;SDS011;6344;49.932;8.308;2022-10-18T12:21:19;1.10;;;0.90;;
12556;SDS011;6344;49.932;8.308;2022-10-18T12:23:49;1.73;;;0.90;;
12556;SDS011;6344;49.932;8.308;2022-10-18T12:26:19;1.03;;;0.93;;
12556;SDS011;6344;49.932;8.308;2022-10-18T12:28:48;1.27;;;1.10;;
12556;SDS011;6344;49.932;8.308;2022-10-18T12:31:23;1.20;;;0.90;;
12556;SDS011;6344;49.932;8.308;2022-10-18T12:33:59;1.23;;;1.00;;
12556;SDS011;6344;49.932;8.308;2022-10-18T12:36:52;1.20;;;1.10;;
12556;SDS011;6344;49.932;8.308;2022-10-18T12:39:38;1.40;;;1.00;;
12556;SDS011;6344;49.932;8.308;2022-10-18T12:42:14;1.20;;;0.90;;
12556;SDS011;6344;49.932;8.308;2022-10-18T12:44:43;1.00;;;0.90;;
12556;SDS011;6344;49.932;8.308;2022-10-18T12:47:19;1.20;;;1.00;;
12556;SDS011;6344;49.932;8.308;2022-10-18T12:49:54;1.30;;;1.00;;
12556;SDS011;6344;49.932;8.308;2022-10-18T12:52:22;1.33;;;1.00;;
12556;SDS011;6344;49.932;8.308;2022-10-18T12:55:04;1.00;;;0.90;;
12556;SDS011;6344;49.932;8.308;2022-10-18T12:58:04;7.67;;;1.10;;
12556;SDS011;6344;49.932;8.308;2022-10-18T13:00:58;1.73;;;0.93;;
12556;SDS011;6344;49.932;8.308;2022-10-18T13:03:28;1.67;;;1.23;;
12556;SDS011;6344;49.932;8.308;2022-10-18T13:06:04;1.10;;;0.93;;
12556;SDS011;6344;49.932;8.308;2022-10-18T13:08:36;1.30;;;1.00;;
12556;SDS011;6344;49.932;8.308;2022-10-18T13:11:25;1.10;;;0.90;;
12556;SDS011;6344;49.932;8.308;2022-10-18T13:16:57;1.60;;;1.20;;
12556;SDS011;6344;49.932;8.308;2022-10-18T13:19:29;1.23;;;1.13;;
12556;SDS011;6344;49.932;8.308;2022-10-18T13:22:10;2.07;;;1.20;;
12556;SDS011;6344;49.932;8.308;2022-10-18T13:24:46;1.80;;;1.30;;
12556;SDS011;6344;49.932;8.308;2022-10-18T13:27:28;2.70;;;1.30;;
12556;SDS011;6344;49.932;8.308;2022-10-18T13:33:07;1.50;;;1.40;;
12556;SDS011;6344;49.932;8.308;2022-10-18T13:35:54;1.30;;;1.20;;
12556;SDS011;6344;49.932;8.308;2022-10-18T13:41:10;1.30;;;1.20;;
12556;SDS011;6344;49.932;8.308;2022-10-18T13:43:55;1.93;;;1.23;;
12556;SDS011;6344;49.932;8.308;2022-10-18T13:49:37;1.67;;;1.20;;
12556;SDS011;6344;49.932;8.308;2022-10-18T13:52:14;1.97;;;1.40;;
12556;SDS011;6344;49.932;8.308;2022-10-18T13:54:51;1.60;;;1.50;;
12556;SDS011;6344;49.932;8.308;2022-10-18T13:57:34;1.50;;;1.40;;
12556;SDS011;6344;49.932;8.308;2022-10-18T14:00:17;1.23;;;1.13;;
12556;SDS011;6344;49.932;8.308;2022-10-18T14:02:56;1.83;;;1.27;;
12556;SDS011;6344;49.932;8.308;2022-10-18T14:05:53;1.40;;;1.30;;
12556;SDS011;6344;49.932;8.308;2022-10-18T14:08:28;3.73;;;1.40;;
12556;SDS011;6344;49.932;8.308;2022-10-18T14:11:00;3.77;;;1.40;;
12556;SDS011;6344;49.932;8.308;2022-10-18T14:13:32;5.43;;;1.77;;
12556;SDS011;6344;49.932;8.308;2022-10-18T14:16:04;1.50;;;1.40;;
12556;SDS011;6344;49.932;8.308;2022-10-18T14:18:37;3.40;;;1.60;;
12556;SDS011;6344;49.932;8.308;2022-10-18T14:21:09;1.70;;;1.60;;
12556;SDS011;6344;49.932;8.308;2022-10-18T14:23:41;2.87;;;1.97;;
12556;SDS011;6344;49.932;8.308;2022-10-18T14:26:12;1.50;;;1.40;;
12556;SDS011;6344;49.932;8.308;2022-10-18T14:28:39;1.70;;;1.60;;
12556;SDS011;6344;49.932;8.308;2022-10-18T14:31:10;1.80;;;1.70;;
12556;SDS011;6344;49.932;8.308;2022-10-18T14:33:41;2.10;;;1.60;;
12556;SDS011;6344;49.932;8.308;2022-10-18T14:36:11;2.57;;;1.90;;
12556;SDS011;6344;49.932;8.308;2022-10-18T14:38:49;4.27;;;1.73;;
12556;SDS011;6344;49.932;8.308;2022-10-18T14:41:19;1.50;;;1.40;;
12556;SDS011;6344;49.932;8.308;2022-10-18T14:43:48;2.57;;;1.40;;
12556;SDS011;6344;49.932;8.308;2022-10-18T14:46:17;2.13;;;1.60;;
12556;SDS011;6344;49.932;8.308;2022-10-18T14:48:52;1.80;;;1.53;;
12556;SDS011;6344;49.932;8.308;2022-10-18T14:51:20;1.60;;;1.50;;
12556;SDS011;6344;49.932;8.308;2022-10-18T14:53:48;2.13;;;1.70;;
12556;SDS011;6344;49.932;8.308;2022-10-18T14:56:18;2.03;;;1.80;;
12556;SDS011;6344;49.932;8.308;2022-10-18T14:58:50;6.00;;;2.30;;
12556;SDS011;6344;49.932;8.308;2022-10-18T15:01:19;2.17;;;1.70;;
12556;SDS011;6344;49.932;8.308;2022-10-18T15:03:49;2.90;;;1.70;;
12556;SDS011;6344;49.932;8.308;2022-10-18T15:06:23;2.80;;;1.83;;
12556;SDS011;6344;49.932;8.308;2022-10-18T15:08:52;1.70;;;1.60;;
12556;SDS011;6344;49.932;8.308;2022-10-18T15:11:21;2.10;;;1.90;;
12556;SDS011;6344;49.932;8.308;2022-10-18T15:13:50;1.83;;;1.73;;
12556;SDS011;6344;49.932;8.308;2022-10-18T15:16:19;2.00;;;1.50;;
12556;SDS011;6344;49.932;8.308;2022-10-18T15:19:01;1.67;;;1.57;;
12556;SDS011;6344;49.932;8.308;2022-10-18T15:21:30;2.00;;;1.73;;
12556;SDS011;6344;49.932;8.308;2022-10-18T15:26:43;2.93;;;2.13;;
12556;SDS011;6344;49.932;8.308;2022-10-18T15:29:14;3.30;;;1.80;;
12556;SDS011;6344;49.932;8.308;2022-10-18T15:31:42;3.60;;;2.07;;
12556;SDS011;6344;49.932;8.308;2022-10-18T15:34:17;2.27;;;2.17;;